sensor_id;sensor_type;location;lat;lon;timestamp;temperature;humidity
71142;DHT22;58808;59.366;17.970;2023-06-04T00:01:55;15.50;84.90
71142;DHT22;58808;59.366;17.970;2023-06-04T00:04:21;15.50;85.50
71142;DHT22;58808;59.366;17.970;2023-06-04T00:06:48;15.50;86.00
71142;DHT22;58808;59.366;17.970;2023-06-04T00:09:14;15.60;86.10
71142;DHT22;58808;59.366;17.970;2023-06-04T00:11:41;15.60;86.60
71142;DHT22;58808;59.366;17.970;2023-06-04T00:14:06;15.50;88.00
71142;DHT22;58808;59.366;17.970;2023-06-04T00:16:32;15.40;89.00
71142;DHT22;58808;59.366;17.970;2023-06-04T00:19:01;15.40;90.10
71142;DHT22;58808;59.366;17.970;2023-06-04T00:21:26;15.40;90.60
71142;DHT22;58808;59.366;17.970;2023-06-04T00:23:52;15.40;91.20
71142;DHT22;58808;59.366;17.970;2023-06-04T00:26:18;15.30;91.70
71142;DHT22;58808;59.366;17.970;2023-06-04T00:28:44;15.30;92.30
71142;DHT22;58808;59.366;17.970;2023-06-04T00:31:09;15.30;92.80
71142;DHT22;58808;59.366;17.970;2023-06-04T00:33:41;15.30;93.20
71142;DHT22;58808;59.366;17.970;2023-06-04T00:36:07;15.20;94.00
71142;DHT22;58808;59.366;17.970;2023-06-04T00:38:32;15.20;94.30
71142;DHT22;58808;59.366;17.970;2023-06-04T00:40:58;15.20;94.70
71142;DHT22;58808;59.366;17.970;2023-06-04T00:43:24;15.10;95.40
71142;DHT22;58808;59.366;17.970;2023-06-04T00:45:52;15.00;96.10
71142;DHT22;58808;59.366;17.970;2023-06-04T00:48:18;15.10;96.60
71142;DHT22;58808;59.366;17.970;2023-06-04T00:50:44;15.10;97.00
71142;DHT22;58808;59.366;17.970;2023-06-04T00:53:10;15.10;97.40
71142;DHT22;58808;59.366;17.970;2023-06-04T00:55:36;15.00;97.80
71142;DHT22;58808;59.366;17.970;2023-06-04T00:58:02;15.00;97.60
71142;DHT22;58808;59.366;17.970;2023-06-04T01:00:30;14.90;97.90
71142;DHT22;58808;59.366;17.970;2023-06-04T01:02:58;14.80;98.40
71142;DHT22;58808;59.366;17.970;2023-06-04T01:05:43;14.80;98.90
71142;DHT22;58808;59.366;17.970;2023-06-04T01:08:13;14.60;99.90
71142;DHT22;58808;59.366;17.970;2023-06-04T01:11:00;14.60;99.90
71142;DHT22;58808;59.366;17.970;2023-06-04T01:13:26;14.50;99.90
71142;DHT22;58808;59.366;17.970;2023-06-04T01:15:52;14.40;99.90
71142;DHT22;58808;59.366;17.970;2023-06-04T01:18:26;14.20;99.90
71142;DHT22;58808;59.366;17.970;2023-06-04T01:21:00;14.20;99.90
71142;DHT22;58808;59.366;17.970;2023-06-04T01:23:40;14.10;99.90
71142;DHT22;58808;59.366;17.970;2023-06-04T01:26:09;14.10;99.90
71142;DHT22;58808;59.366;17.970;2023-06-04T01:28:36;14.10;99.90
71142;DHT22;58808;59.366;17.970;2023-06-04T01:31:03;14.10;99.90
71142;DHT22;58808;59.366;17.970;2023-06-04T01:33:29;14.00;99.90
71142;DHT22;58808;59.366;17.970;2023-06-04T01:35:55;14.00;99.90
71142;DHT22;58808;59.366;17.970;2023-06-04T01:38:21;13.90;99.90
71142;DHT22;58808;59.366;17.970;2023-06-04T01:40:47;13.90;99.90
71142;DHT22;58808;59.366;17.970;2023-06-04T01:43:13;13.70;99.90
71142;DHT22;58808;59.366;17.970;2023-06-04T01:45:39;13.70;99.90
71142;DHT22;58808;59.366;17.970;2023-06-04T01:48:05;13.60;99.90
71142;DHT22;58808;59.366;17.970;2023-06-04T01:50:32;13.60;99.90
71142;DHT22;58808;59.366;17.970;2023-06-04T01:52:58;13.60;99.90
71142;DHT22;58808;59.366;17.970;2023-06-04T01:55:23;13.70;99.90
71142;DHT22;58808;59.366;17.970;2023-06-04T01:57:53;13.80;99.90
71142;DHT22;58808;59.366;17.970;2023-06-04T02:00:19;13.90;99.90
71142;DHT22;58808;59.366;17.970;2023-06-04T02:02:45;13.90;99.90
71142;DHT22;58808;59.366;17.970;2023-06-04T02:05:13;13.80;99.90
71142;DHT22;58808;59.366;17.970;2023-06-04T02:07:41;13.80;99.90
71142;DHT22;58808;59.366;17.970;2023-06-04T02:10:12;13.70;99.90
71142;DHT22;58808;59.366;17.970;2023-06-04T02:12:39;13.70;99.90
71142;DHT22;58808;59.366;17.970;2023-06-04T02:15:06;13.70;99.90
71142;DHT22;58808;59.366;17.970;2023-06-04T02:17:32;13.60;99.90
71142;DHT22;58808;59.366;17.970;2023-06-04T02:20:03;13.50;99.90
71142;DHT22;58808;59.366;17.970;2023-06-04T02:22:30;13.50;99.90
71142;DHT22;58808;59.366;17.970;2023-06-04T02:24:56;13.60;99.90
71142;DHT22;58808;59.366;17.970;2023-06-04T02:27:21;13.50;99.90
71142;DHT22;58808;59.366;17.970;2023-06-04T02:29:47;13.50;99.90
71142;DHT22;58808;59.366;17.970;2023-06-04T02:32:13;13.50;99.90
71142;DHT22;58808;59.366;17.970;2023-06-04T02:34:38;13.50;99.90
71142;DHT22;58808;59.366;17.970;2023-06-04T02:37:04;13.40;99.90
71142;DHT22;58808;59.366;17.970;2023-06-04T02:39:31;13.30;99.90
71142;DHT22;58808;59.366;17.970;2023-06-04T02:41:56;13.30;99.90
71142;DHT22;58808;59.366;17.970;2023-06-04T02:44:22;13.00;99.90
71142;DHT22;58808;59.366;17.970;2023-06-04T02:46:48;12.90;99.90
71142;DHT22;58808;59.366;17.970;2023-06-04T02:49:13;12.90;99.90
71142;DHT22;58808;59.366;17.970;2023-06-04T02:51:45;12.80;99.90
71142;DHT22;58808;59.366;17.970;2023-06-04T02:54:11;12.70;99.90
71142;DHT22;58808;59.366;17.970;2023-06-04T02:56:37;12.60;99.90
71142;DHT22;58808;59.366;17.970;2023-06-04T02:59:04;12.60;99.90
71142;DHT22;58808;59.366;17.970;2023-06-04T03:01:30;12.60;99.90
71142;DHT22;58808;59.366;17.970;2023-06-04T03:03:56;12.60;99.90
71142;DHT22;58808;59.366;17.970;2023-06-04T03:06:29;12.60;99.90
71142;DHT22;58808;59.366;17.970;2023-06-04T03:08:55;12.60;99.90
71142;DHT22;58808;59.366;17.970;2023-06-04T03:11:21;12.60;99.90
71142;DHT22;58808;59.366;17.970;2023-06-04T03:13:47;12.60;99.90
71142;DHT22;58808;59.366;17.970;2023-06-04T03:16:13;12.50;99.90
71142;DHT22;58808;59.366;17.970;2023-06-04T03:18:42;12.50;99.90
71142;DHT22;58808;59.366;17.970;2023-06-04T03:21:10;12.50;99.90
71142;DHT22;58808;59.366;17.970;2023-06-04T03:23:37;12.60;99.90
71142;DHT22;58808;59.366;17.970;2023-06-04T03:26:04;12.50;99.90
71142;DHT22;58808;59.366;17.970;2023-06-04T03:28:30;12.60;99.90
71142;DHT22;58808;59.366;17.970;2023-06-04T03:30:56;12.60;99.90
71142;DHT22;58808;59.366;17.970;2023-06-04T03:33:22;12.60;99.90
71142;DHT22;58808;59.366;17.970;2023-06-04T03:35:47;12.50;99.90
71142;DHT22;58808;59.366;17.970;2023-06-04T03:38:14;12.50;99.90
71142;DHT22;58808;59.366;17.970;2023-06-04T03:40:40;12.50;99.90
71142;DHT22;58808;59.366;17.970;2023-06-04T03:43:06;12.40;99.90
71142;DHT22;58808;59.366;17.970;2023-06-04T03:45:32;12.40;99.90
71142;DHT22;58808;59.366;17.970;2023-06-04T03:47:58;12.50;99.90
71142;DHT22;58808;59.366;17.970;2023-06-04T03:50:23;12.50;99.90
71142;DHT22;58808;59.366;17.970;2023-06-04T03:52:49;12.50;99.90
71142;DHT22;58808;59.366;17.970;2023-06-04T03:55:15;12.50;99.90
71142;DHT22;58808;59.366;17.970;2023-06-04T03:57:41;12.50;99.90
71142;DHT22;58808;59.366;17.970;2023-06-04T04:00:08;12.50;99.90
71142;DHT22;58808;59.366;17.970;2023-06-04T04:02:37;12.60;99.90
71142;DHT22;58808;59.366;17.970;2023-06-04T04:05:04;12.60;99.90
71142;DHT22;58808;59.366;17.970;2023-06-04T04:07:29;12.60;99.90
71142;DHT22;58808;59.366;17.970;2023-06-04T04:09:55;12.50;99.90
71142;DHT22;58808;59.366;17.970;2023-06-04T04:12:21;12.50;99.90
71142;DHT22;58808;59.366;17.970;2023-06-04T04:14:47;12.50;99.90
71142;DHT22;58808;59.366;17.970;2023-06-04T04:17:13;12.50;99.90
71142;DHT22;58808;59.366;17.970;2023-06-04T04:19:39;12.50;99.90
71142;DHT22;58808;59.366;17.970;2023-06-04T04:22:05;12.50;99.90
71142;DHT22;58808;59.366;17.970;2023-06-04T04:24:32;12.30;99.90
71142;DHT22;58808;59.366;17.970;2023-06-04T04:26:59;12.30;99.90
71142;DHT22;58808;59.366;17.970;2023-06-04T04:29:25;12.30;99.90
71142;DHT22;58808;59.366;17.970;2023-06-04T04:31:53;12.20;99.90
71142;DHT22;58808;59.366;17.970;2023-06-04T04:34:22;12.30;99.90
71142;DHT22;58808;59.366;17.970;2023-06-04T04:36:49;12.30;99.80
71142;DHT22;58808;59.366;17.970;2023-06-04T04:39:23;12.40;99.70
71142;DHT22;58808;59.366;17.970;2023-06-04T04:41:49;12.40;99.90
71142;DHT22;58808;59.366;17.970;2023-06-04T04:44:15;12.30;98.00
71142;DHT22;58808;59.366;17.970;2023-06-04T04:46:41;12.20;98.10
71142;DHT22;58808;59.366;17.970;2023-06-04T04:49:06;12.20;98.80
71142;DHT22;58808;59.366;17.970;2023-06-04T04:51:32;12.20;98.70
71142;DHT22;58808;59.366;17.970;2023-06-04T04:53:59;12.30;98.50
71142;DHT22;58808;59.366;17.970;2023-06-04T04:56:28;12.30;98.40
71142;DHT22;58808;59.366;17.970;2023-06-04T04:58:54;12.30;98.50
71142;DHT22;58808;59.366;17.970;2023-06-04T05:01:20;12.40;97.60
71142;DHT22;58808;59.366;17.970;2023-06-04T05:03:46;12.40;98.10
71142;DHT22;58808;59.366;17.970;2023-06-04T05:06:12;12.40;96.40
71142;DHT22;58808;59.366;17.970;2023-06-04T05:08:38;12.40;95.20
71142;DHT22;58808;59.366;17.970;2023-06-04T05:11:04;12.30;95.40
71142;DHT22;58808;59.366;17.970;2023-06-04T05:13:29;12.30;95.30
71142;DHT22;58808;59.366;17.970;2023-06-04T05:15:55;12.20;94.70
71142;DHT22;58808;59.366;17.970;2023-06-04T05:18:22;12.20;94.70
71142;DHT22;58808;59.366;17.970;2023-06-04T05:20:58;12.20;94.50
71142;DHT22;58808;59.366;17.970;2023-06-04T05:23:28;12.10;95.10
71142;DHT22;58808;59.366;17.970;2023-06-04T05:25:58;12.00;96.10
71142;DHT22;58808;59.366;17.970;2023-06-04T05:28:25;12.00;96.50
71142;DHT22;58808;59.366;17.970;2023-06-04T05:30:51;12.00;96.50
71142;DHT22;58808;59.366;17.970;2023-06-04T05:33:17;12.00;95.50
71142;DHT22;58808;59.366;17.970;2023-06-04T05:35:47;12.00;95.10
71142;DHT22;58808;59.366;17.970;2023-06-04T05:38:18;12.10;95.30
71142;DHT22;58808;59.366;17.970;2023-06-04T05:40:53;12.10;95.90
71142;DHT22;58808;59.366;17.970;2023-06-04T05:43:20;12.20;96.20
71142;DHT22;58808;59.366;17.970;2023-06-04T05:45:47;12.30;95.50
71142;DHT22;58808;59.366;17.970;2023-06-04T05:48:12;12.30;94.90
71142;DHT22;58808;59.366;17.970;2023-06-04T05:50:38;12.30;94.40
71142;DHT22;58808;59.366;17.970;2023-06-04T05:53:04;12.30;94.30
71142;DHT22;58808;59.366;17.970;2023-06-04T05:55:29;12.30;94.60
71142;DHT22;58808;59.366;17.970;2023-06-04T05:57:56;12.20;93.40
71142;DHT22;58808;59.366;17.970;2023-06-04T06:00:22;12.20;92.60
71142;DHT22;58808;59.366;17.970;2023-06-04T06:02:50;12.10;93.60
71142;DHT22;58808;59.366;17.970;2023-06-04T06:05:17;12.10;92.60
71142;DHT22;58808;59.366;17.970;2023-06-04T06:07:43;12.10;92.70
71142;DHT22;58808;59.366;17.970;2023-06-04T06:10:10;12.20;92.70
71142;DHT22;58808;59.366;17.970;2023-06-04T06:12:35;12.20;92.10
71142;DHT22;58808;59.366;17.970;2023-06-04T06:15:01;12.10;92.60
71142;DHT22;58808;59.366;17.970;2023-06-04T06:17:27;12.10;92.50
71142;DHT22;58808;59.366;17.970;2023-06-04T06:19:54;12.20;92.10
71142;DHT22;58808;59.366;17.970;2023-06-04T06:22:19;12.20;92.00
71142;DHT22;58808;59.366;17.970;2023-06-04T06:24:45;12.20;91.70
71142;DHT22;58808;59.366;17.970;2023-06-04T06:27:14;12.10;91.20
71142;DHT22;58808;59.366;17.970;2023-06-04T06:29:40;12.10;91.60
71142;DHT22;58808;59.366;17.970;2023-06-04T06:32:07;12.10;92.50
71142;DHT22;58808;59.366;17.970;2023-06-04T06:34:33;12.10;91.80
71142;DHT22;58808;59.366;17.970;2023-06-04T06:36:58;12.10;92.30
71142;DHT22;58808;59.366;17.970;2023-06-04T06:39:24;12.20;91.30
71142;DHT22;58808;59.366;17.970;2023-06-04T06:41:50;12.20;91.30
71142;DHT22;58808;59.366;17.970;2023-06-04T06:44:15;12.30;91.50
71142;DHT22;58808;59.366;17.970;2023-06-04T06:46:41;12.30;91.20
71142;DHT22;58808;59.366;17.970;2023-06-04T06:49:07;12.30;90.40
71142;DHT22;58808;59.366;17.970;2023-06-04T06:51:33;12.30;91.40
71142;DHT22;58808;59.366;17.970;2023-06-04T06:53:59;12.30;91.40
71142;DHT22;58808;59.366;17.970;2023-06-04T06:56:24;12.30;91.60
71142;DHT22;58808;59.366;17.970;2023-06-04T06:58:51;12.30;90.00
71142;DHT22;58808;59.366;17.970;2023-06-04T07:01:17;12.50;90.30
71142;DHT22;58808;59.366;17.970;2023-06-04T07:03:43;12.60;88.40
71142;DHT22;58808;59.366;17.970;2023-06-04T07:06:08;12.70;87.90
71142;DHT22;58808;59.366;17.970;2023-06-04T07:08:34;12.70;87.00
71142;DHT22;58808;59.366;17.970;2023-06-04T07:11:02;12.80;87.40
71142;DHT22;58808;59.366;17.970;2023-06-04T07:13:28;12.90;85.70
71142;DHT22;58808;59.366;17.970;2023-06-04T07:15:54;13.00;85.40
71142;DHT22;58808;59.366;17.970;2023-06-04T07:18:20;13.10;84.20
71142;DHT22;58808;59.366;17.970;2023-06-04T07:20:45;13.10;85.10
71142;DHT22;58808;59.366;17.970;2023-06-04T07:23:11;13.10;85.10
71142;DHT22;58808;59.366;17.970;2023-06-04T07:25:37;13.30;85.10
71142;DHT22;58808;59.366;17.970;2023-06-04T07:28:03;13.40;85.50
71142;DHT22;58808;59.366;17.970;2023-06-04T07:30:31;13.50;82.90
71142;DHT22;58808;59.366;17.970;2023-06-04T07:32:59;13.70;83.90
71142;DHT22;58808;59.366;17.970;2023-06-04T07:35:25;13.80;82.80
71142;DHT22;58808;59.366;17.970;2023-06-04T07:37:51;13.90;80.80
71142;DHT22;58808;59.366;17.970;2023-06-04T07:40:17;14.10;80.40
71142;DHT22;58808;59.366;17.970;2023-06-04T07:42:45;14.30;78.30
71142;DHT22;58808;59.366;17.970;2023-06-04T07:45:12;14.30;76.30
71142;DHT22;58808;59.366;17.970;2023-06-04T07:47:37;14.50;75.80
71142;DHT22;58808;59.366;17.970;2023-06-04T07:50:04;14.70;75.20
71142;DHT22;58808;59.366;17.970;2023-06-04T07:52:31;14.80;74.00
71142;DHT22;58808;59.366;17.970;2023-06-04T07:54:57;14.70;73.60
71142;DHT22;58808;59.366;17.970;2023-06-04T07:57:23;14.80;72.90
71142;DHT22;58808;59.366;17.970;2023-06-04T07:59:49;14.90;72.10
71142;DHT22;58808;59.366;17.970;2023-06-04T08:02:15;15.00;71.40
71142;DHT22;58808;59.366;17.970;2023-06-04T08:04:41;15.00;68.00
71142;DHT22;58808;59.366;17.970;2023-06-04T08:07:07;15.00;68.30
71142;DHT22;58808;59.366;17.970;2023-06-04T08:09:32;15.00;71.10
71142;DHT22;58808;59.366;17.970;2023-06-04T08:11:59;15.10;71.90
71142;DHT22;58808;59.366;17.970;2023-06-04T08:14:24;15.30;69.20
71142;DHT22;58808;59.366;17.970;2023-06-04T08:16:53;15.40;68.70
71142;DHT22;58808;59.366;17.970;2023-06-04T08:19:19;15.50;66.40
71142;DHT22;58808;59.366;17.970;2023-06-04T08:21:44;15.20;65.30
71142;DHT22;58808;59.366;17.970;2023-06-04T08:24:11;14.80;66.10
71142;DHT22;58808;59.366;17.970;2023-06-04T08:26:37;14.60;68.50
71142;DHT22;58808;59.366;17.970;2023-06-04T08:29:03;14.50;69.30
71142;DHT22;58808;59.366;17.970;2023-06-04T08:31:32;14.40;70.60
71142;DHT22;58808;59.366;17.970;2023-06-04T08:33:58;14.30;70.00
71142;DHT22;58808;59.366;17.970;2023-06-04T08:36:24;14.30;70.90
71142;DHT22;58808;59.366;17.970;2023-06-04T08:38:49;14.30;71.30
71142;DHT22;58808;59.366;17.970;2023-06-04T08:44:05;14.30;71.40
71142;DHT22;58808;59.366;17.970;2023-06-04T08:46:38;14.10;70.60
71142;DHT22;58808;59.366;17.970;2023-06-04T08:49:05;14.30;71.50
71142;DHT22;58808;59.366;17.970;2023-06-04T08:51:37;14.50;70.20
71142;DHT22;58808;59.366;17.970;2023-06-04T08:54:07;14.70;70.70
71142;DHT22;58808;59.366;17.970;2023-06-04T08:56:34;14.90;70.60
71142;DHT22;58808;59.366;17.970;2023-06-04T08:59:03;14.90;68.40
71142;DHT22;58808;59.366;17.970;2023-06-04T09:01:30;14.80;66.40
71142;DHT22;58808;59.366;17.970;2023-06-04T09:03:58;14.80;66.80
71142;DHT22;58808;59.366;17.970;2023-06-04T09:06:27;14.50;66.10
71142;DHT22;58808;59.366;17.970;2023-06-04T09:08:56;14.50;67.60
71142;DHT22;58808;59.366;17.970;2023-06-04T09:11:37;14.50;68.60
71142;DHT22;58808;59.366;17.970;2023-06-04T09:14:07;14.40;70.00
71142;DHT22;58808;59.366;17.970;2023-06-04T09:19:09;14.10;70.40
71142;DHT22;58808;59.366;17.970;2023-06-04T09:21:58;14.00;69.10
71142;DHT22;58808;59.366;17.970;2023-06-04T09:24:42;13.90;69.00
71142;DHT22;58808;59.366;17.970;2023-06-04T09:27:18;14.20;70.40
71142;DHT22;58808;59.366;17.970;2023-06-04T09:32:30;14.60;65.90
71142;DHT22;58808;59.366;17.970;2023-06-04T09:35:14;14.40;66.30
71142;DHT22;58808;59.366;17.970;2023-06-04T09:37:40;14.40;67.30
71142;DHT22;58808;59.366;17.970;2023-06-04T09:40:08;14.30;70.10
71142;DHT22;58808;59.366;17.970;2023-06-04T09:42:44;14.40;71.00
71142;DHT22;58808;59.366;17.970;2023-06-04T09:45:10;14.50;71.40
71142;DHT22;58808;59.366;17.970;2023-06-04T09:47:43;14.50;70.90
71142;DHT22;58808;59.366;17.970;2023-06-04T09:50:12;14.60;68.70
71142;DHT22;58808;59.366;17.970;2023-06-04T09:52:38;14.70;69.60
71142;DHT22;58808;59.366;17.970;2023-06-04T09:55:25;15.00;69.20
71142;DHT22;58808;59.366;17.970;2023-06-04T09:57:52;15.40;68.10
71142;DHT22;58808;59.366;17.970;2023-06-04T10:00:24;15.50;65.90
71142;DHT22;58808;59.366;17.970;2023-06-04T10:02:56;15.50;66.40
71142;DHT22;58808;59.366;17.970;2023-06-04T10:05:24;15.50;67.20
71142;DHT22;58808;59.366;17.970;2023-06-04T10:07:51;15.50;66.30
71142;DHT22;58808;59.366;17.970;2023-06-04T10:10:21;15.30;63.60
71142;DHT22;58808;59.366;17.970;2023-06-04T10:13:07;15.10;64.20
71142;DHT22;58808;59.366;17.970;2023-06-04T10:15:36;15.10;65.40
71142;DHT22;58808;59.366;17.970;2023-06-04T10:18:02;15.20;66.10
71142;DHT22;58808;59.366;17.970;2023-06-04T10:20:30;15.20;63.10
71142;DHT22;58808;59.366;17.970;2023-06-04T10:22:55;15.10;63.00
71142;DHT22;58808;59.366;17.970;2023-06-04T10:25:21;15.10;64.50
71142;DHT22;58808;59.366;17.970;2023-06-04T10:27:49;15.10;63.80
71142;DHT22;58808;59.366;17.970;2023-06-04T10:30:16;15.30;66.20
71142;DHT22;58808;59.366;17.970;2023-06-04T10:32:41;15.60;65.00
71142;DHT22;58808;59.366;17.970;2023-06-04T10:35:07;15.80;62.90
71142;DHT22;58808;59.366;17.970;2023-06-04T10:37:33;15.90;62.90
71142;DHT22;58808;59.366;17.970;2023-06-04T10:40:00;15.80;62.50
71142;DHT22;58808;59.366;17.970;2023-06-04T10:42:26;15.90;62.30
71142;DHT22;58808;59.366;17.970;2023-06-04T10:44:55;15.90;60.80
71142;DHT22;58808;59.366;17.970;2023-06-04T10:47:25;15.90;61.40
71142;DHT22;58808;59.366;17.970;2023-06-04T10:49:52;15.80;59.70
71142;DHT22;58808;59.366;17.970;2023-06-04T10:52:18;15.90;59.20
71142;DHT22;58808;59.366;17.970;2023-06-04T10:54:45;16.20;60.00
71142;DHT22;58808;59.366;17.970;2023-06-04T10:57:17;16.20;59.40
71142;DHT22;58808;59.366;17.970;2023-06-04T11:00:00;16.20;60.10
71142;DHT22;58808;59.366;17.970;2023-06-04T11:02:26;16.10;60.10
71142;DHT22;58808;59.366;17.970;2023-06-04T11:05:02;16.00;60.30
71142;DHT22;58808;59.366;17.970;2023-06-04T11:07:44;15.90;60.20
71142;DHT22;58808;59.366;17.970;2023-06-04T11:10:11;15.80;60.50
71142;DHT22;58808;59.366;17.970;2023-06-04T11:12:48;15.70;59.60
71142;DHT22;58808;59.366;17.970;2023-06-04T11:15:16;15.70;61.80
71142;DHT22;58808;59.366;17.970;2023-06-04T11:18:13;15.70;60.00
71142;DHT22;58808;59.366;17.970;2023-06-04T11:20:39;15.60;60.60
71142;DHT22;58808;59.366;17.970;2023-06-04T11:23:05;15.70;60.90
71142;DHT22;58808;59.366;17.970;2023-06-04T11:25:31;16.00;61.90
71142;DHT22;58808;59.366;17.970;2023-06-04T11:28:00;16.10;59.90
71142;DHT22;58808;59.366;17.970;2023-06-04T11:30:27;16.00;60.30
71142;DHT22;58808;59.366;17.970;2023-06-04T11:33:05;16.00;60.50
71142;DHT22;58808;59.366;17.970;2023-06-04T11:35:38;15.90;61.20
71142;DHT22;58808;59.366;17.970;2023-06-04T11:38:05;15.90;60.60
71142;DHT22;58808;59.366;17.970;2023-06-04T11:40:30;15.90;63.20
71142;DHT22;58808;59.366;17.970;2023-06-04T11:42:56;15.90;63.10
71142;DHT22;58808;59.366;17.970;2023-06-04T11:45:23;15.90;59.90
71142;DHT22;58808;59.366;17.970;2023-06-04T11:47:51;15.80;59.60
71142;DHT22;58808;59.366;17.970;2023-06-04T11:50:18;15.70;60.10
71142;DHT22;58808;59.366;17.970;2023-06-04T11:52:44;15.80;62.00
71142;DHT22;58808;59.366;17.970;2023-06-04T11:55:11;16.00;59.40
71142;DHT22;58808;59.366;17.970;2023-06-04T11:57:40;16.00;59.60
71142;DHT22;58808;59.366;17.970;2023-06-04T12:00:07;16.10;59.10
71142;DHT22;58808;59.366;17.970;2023-06-04T12:02:38;16.30;59.20
71142;DHT22;58808;59.366;17.970;2023-06-04T12:05:16;16.50;57.70
71142;DHT22;58808;59.366;17.970;2023-06-04T12:07:49;16.50;56.90
71142;DHT22;58808;59.366;17.970;2023-06-04T12:10:20;16.50;58.30
71142;DHT22;58808;59.366;17.970;2023-06-04T12:12:53;16.60;57.00
71142;DHT22;58808;59.366;17.970;2023-06-04T12:15:20;16.50;57.00
71142;DHT22;58808;59.366;17.970;2023-06-04T12:17:53;16.40;57.10
71142;DHT22;58808;59.366;17.970;2023-06-04T12:22:57;16.40;58.10
71142;DHT22;58808;59.366;17.970;2023-06-04T12:25:24;16.40;58.10
71142;DHT22;58808;59.366;17.970;2023-06-04T12:27:51;16.50;58.50
71142;DHT22;58808;59.366;17.970;2023-06-04T12:30:17;16.60;59.20
71142;DHT22;58808;59.366;17.970;2023-06-04T12:32:43;16.60;57.20
71142;DHT22;58808;59.366;17.970;2023-06-04T12:35:09;16.50;56.20
71142;DHT22;58808;59.366;17.970;2023-06-04T12:37:35;16.40;56.00
71142;DHT22;58808;59.366;17.970;2023-06-04T12:40:01;16.40;57.40
71142;DHT22;58808;59.366;17.970;2023-06-04T12:42:26;16.40;57.30
71142;DHT22;58808;59.366;17.970;2023-06-04T12:44:53;16.40;57.50
71142;DHT22;58808;59.366;17.970;2023-06-04T12:47:19;16.40;55.90
71142;DHT22;58808;59.366;17.970;2023-06-04T12:49:46;16.40;55.90
71142;DHT22;58808;59.366;17.970;2023-06-04T12:52:12;16.40;55.70
71142;DHT22;58808;59.366;17.970;2023-06-04T12:54:39;16.20;56.40
71142;DHT22;58808;59.366;17.970;2023-06-04T12:57:05;16.20;55.80
71142;DHT22;58808;59.366;17.970;2023-06-04T12:59:31;16.20;56.40
71142;DHT22;58808;59.366;17.970;2023-06-04T13:01:56;16.20;56.60
71142;DHT22;58808;59.366;17.970;2023-06-04T13:04:23;16.30;56.40
71142;DHT22;58808;59.366;17.970;2023-06-04T13:06:51;16.40;56.70
71142;DHT22;58808;59.366;17.970;2023-06-04T13:09:24;16.60;58.20
71142;DHT22;58808;59.366;17.970;2023-06-04T13:11:51;16.70;57.20
71142;DHT22;58808;59.366;17.970;2023-06-04T13:14:17;16.80;57.50
71142;DHT22;58808;59.366;17.970;2023-06-04T13:16:42;16.80;55.60
71142;DHT22;58808;59.366;17.970;2023-06-04T13:19:10;16.90;55.80
71142;DHT22;58808;59.366;17.970;2023-06-04T13:21:36;17.20;56.70
71142;DHT22;58808;59.366;17.970;2023-06-04T13:24:02;17.50;56.80
71142;DHT22;58808;59.366;17.970;2023-06-04T13:26:27;17.70;54.00
71142;DHT22;58808;59.366;17.970;2023-06-04T13:28:53;17.90;53.90
71142;DHT22;58808;59.366;17.970;2023-06-04T13:31:19;17.80;51.80
71142;DHT22;58808;59.366;17.970;2023-06-04T13:33:44;17.80;52.30
71142;DHT22;58808;59.366;17.970;2023-06-04T13:36:10;17.90;50.90
71142;DHT22;58808;59.366;17.970;2023-06-04T13:38:36;17.80;51.40
71142;DHT22;58808;59.366;17.970;2023-06-04T13:41:01;18.00;51.90
71142;DHT22;58808;59.366;17.970;2023-06-04T13:43:27;18.00;50.80
71142;DHT22;58808;59.366;17.970;2023-06-04T13:45:53;17.70;51.00
71142;DHT22;58808;59.366;17.970;2023-06-04T13:48:18;17.60;50.80
71142;DHT22;58808;59.366;17.970;2023-06-04T13:50:44;17.50;52.00
71142;DHT22;58808;59.366;17.970;2023-06-04T13:53:10;17.30;52.80
71142;DHT22;58808;59.366;17.970;2023-06-04T13:55:38;17.10;52.50
71142;DHT22;58808;59.366;17.970;2023-06-04T13:58:04;17.00;53.60
71142;DHT22;58808;59.366;17.970;2023-06-04T14:00:30;17.10;52.70
71142;DHT22;58808;59.366;17.970;2023-06-04T14:02:56;17.50;54.40
71142;DHT22;58808;59.366;17.970;2023-06-04T14:05:24;17.90;53.10
71142;DHT22;58808;59.366;17.970;2023-06-04T14:07:50;18.20;51.90
71142;DHT22;58808;59.366;17.970;2023-06-04T14:10:16;18.30;51.00
71142;DHT22;58808;59.366;17.970;2023-06-04T14:12:42;18.40;50.70
71142;DHT22;58808;59.366;17.970;2023-06-04T14:15:08;18.50;50.70
71142;DHT22;58808;59.366;17.970;2023-06-04T14:17:34;18.70;49.10
71142;DHT22;58808;59.366;17.970;2023-06-04T14:20:02;18.80;47.90
71142;DHT22;58808;59.366;17.970;2023-06-04T14:22:36;19.00;48.80
71142;DHT22;58808;59.366;17.970;2023-06-04T14:25:06;19.30;47.20
71142;DHT22;58808;59.366;17.970;2023-06-04T14:27:33;19.40;48.70
71142;DHT22;58808;59.366;17.970;2023-06-04T14:29:58;19.60;47.80
71142;DHT22;58808;59.366;17.970;2023-06-04T14:32:24;19.40;46.30
71142;DHT22;58808;59.366;17.970;2023-06-04T14:34:50;19.00;46.30
71142;DHT22;58808;59.366;17.970;2023-06-04T14:37:16;18.90;47.30
71142;DHT22;58808;59.366;17.970;2023-06-04T14:39:41;19.00;47.40
71142;DHT22;58808;59.366;17.970;2023-06-04T14:42:07;19.10;47.20
71142;DHT22;58808;59.366;17.970;2023-06-04T14:44:33;19.30;45.40
71142;DHT22;58808;59.366;17.970;2023-06-04T14:46:59;19.30;45.00
71142;DHT22;58808;59.366;17.970;2023-06-04T14:49:25;18.80;45.70
71142;DHT22;58808;59.366;17.970;2023-06-04T14:51:50;18.70;47.50
71142;DHT22;58808;59.366;17.970;2023-06-04T14:54:16;18.60;47.90
71142;DHT22;58808;59.366;17.970;2023-06-04T14:56:42;18.40;49.20
71142;DHT22;58808;59.366;17.970;2023-06-04T14:59:09;18.40;48.30
71142;DHT22;58808;59.366;17.970;2023-06-04T15:01:40;18.50;46.70
71142;DHT22;58808;59.366;17.970;2023-06-04T15:04:06;18.80;47.30
71142;DHT22;58808;59.366;17.970;2023-06-04T15:06:32;19.10;47.90
71142;DHT22;58808;59.366;17.970;2023-06-04T15:08:58;19.30;46.80
71142;DHT22;58808;59.366;17.970;2023-06-04T15:11:24;19.50;47.60
71142;DHT22;58808;59.366;17.970;2023-06-04T15:13:52;19.60;46.20
71142;DHT22;58808;59.366;17.970;2023-06-04T15:16:18;19.60;45.30
71142;DHT22;58808;59.366;17.970;2023-06-04T15:18:43;19.30;45.30
71142;DHT22;58808;59.366;17.970;2023-06-04T15:21:09;19.10;45.50
71142;DHT22;58808;59.366;17.970;2023-06-04T15:23:35;18.90;45.70
71142;DHT22;58808;59.366;17.970;2023-06-04T15:26:01;18.80;46.60
71142;DHT22;58808;59.366;17.970;2023-06-04T15:28:26;18.70;46.70